Meteo Giornale » Osservazioni meteo Francia » Nantes
ore: 21:30 - Osservazioni Meteo Nantes
Lat. 47° 10' N Lon. 1° 36' W Alt. 27 metri s.l.m.
17 °C
Sereno
Temp. 24 Ore
17 °C
24 °C
Sud-Ovest
9.3 Km/h
Dew point 14 °C
Umidità 82 %
Visibilità 10 Km
Il sole sorge alle ore 07:24
Il sole tramonta alle ore 20:49
| Data e Ora | Cielo e Fenomeni | T °C | DP °C | Um. % | Pres. hPa | Vis. km | Vento km/h | |
|---|---|---|---|---|---|---|---|---|
| Oggi h: 21:30 | Sereno | 17 | 14 | 82 | 1021 | 10 | SO 9.3 | |
| Oggi h: 21:00 | Sereno | 18 | 14 | 77 | 1021 | 10 | O 7.4 | |
| Oggi h: 20:30 | Sereno | 19 | 14 | 72 | 1021 | 10 | O 11.1 | |
| Oggi h: 20:00 | Poco Nuvoloso | 20 | 14 | 68 | 1021 | 10 | O/SO 18.5 | |
| Oggi h: 19:30 | Poco Nuvoloso | 21 | 13 | 60 | 1021 | 10 | O 20.3 | |
| Oggi h: 19:00 | Poco Nuvoloso | 22 | 14 | 60 | 1020 | 10 | O/SO 20.3 | |
| Oggi h: 18:30 | Poco Nuvoloso | 22 | 13 | 56 | 1020 | 10 | O/SO 18.5 | |
| Oggi h: 18:00 | Poco Nuvoloso | 23 | 13 | 53 | 1020 | 10 | O/SO 20.3 | |
| Oggi h: 17:30 | Molto Nuvoloso | 23 | 13 | 53 | 1020 | 10 | O/SO 20.3 | |
| Oggi h: 17:00 | Nuvoloso | 23 | 13 | 53 | 1020 | 10 | O/SO 20.3 | |
| Oggi h: 16:30 | Molto Nuvoloso | 22 | 14 | 60 | 1020 | 10 | O 18.5 | |
| Oggi h: 16:00 | Molto Nuvoloso | 23 | 13 | 53 | 1020 | 10 | O/SO 24 | |
| Oggi h: 15:30 | Nuvoloso | 24 | 13 | 50 | 1020 | 10 | O 20.3 | |
| Oggi h: 15:00 | Molto Nuvoloso | 24 | 13 | 50 | 1020 | 10 | O 22.2 | |
| Oggi h: 14:30 | Molto Nuvoloso | 24 | 13 | 50 | 1020 | 10 | O 22.2 | |
| Oggi h: 14:00 | Molto Nuvoloso | 23 | 13 | 53 | 1020 | 10 | O 22.2 | |
| Oggi h: 13:30 | Molto Nuvoloso | 22 | 13 | 56 | 1019 | 10 | O 22.2 | |
| Oggi h: 13:00 | Molto Nuvoloso | 23 | 14 | 56 | 1019 | 10 | O 20.3 | |
| Oggi h: 12:30 | Molto Nuvoloso | 23 | 14 | 56 | 1019 | 10 | O 20.3 | |
| Oggi h: 12:00 | Molto Nuvoloso | 23 | 15 | 60 | 1019 | 10 | O 18.5 | |
| Oggi h: 11:30 | Molto Nuvoloso | 22 | 16 | 68 | 1019 | 10 | O 20.3 | |
| Oggi h: 11:00 | Molto Nuvoloso | 21 | 16 | 73 | 1019 | 10 | O 16.7 | |
| Oggi h: 10:30 | Nuvoloso | 19 | 16 | 82 | 1018 | 10 | O 14.8 | |
| Oggi h: 10:00 | Pioggia | 19 | 16 | 82 | 1018 | 1 | O 18.5 | |
| Oggi h: 09:30 | Nuvoloso | 19 | 18 | 93 | 1018 | 10 | O/SO 9.3 | |
| Oggi h: 09:00 | Nuvoloso | 18 | 17 | 93 | 1017 | 10 | SO 9.3 | |
| Oggi h: 08:30 | Poco Nuvoloso | 17 | 16 | 93 | 1017 | 10 | SO 9.3 | |
| Oggi h: 08:00 | Sereno | 17 | 16 | 93 | 1017 | 10 | O/SO 11.1 | |
| Oggi h: 07:30 | Sereno | 17 | 16 | 93 | 1016 | 10 | SO 13 | |
| Oggi h: 07:00 | Molto Nuvoloso | 17 | 16 | 93 | 1016 | 10 | SO 11.1 | |
| Oggi h: 06:30 | Nuvoloso | 17 | 16 | 93 | 1016 | 10 | SO 9.3 | |
| Oggi h: 06:00 | Nuvoloso | 17 | 16 | 93 | 1016 | 10 | O/SO 9.3 | |
| Oggi h: 05:30 | Molto Nuvoloso | 18 | 16 | 88 | 1016 | 10 | O/SO 20.3 | |
| Oggi h: 05:00 | Nuvoloso | 18 | 16 | 88 | 1016 | 10 | SO 13 | |
| Oggi h: 04:30 | Molto Nuvoloso | 17 | 16 | 93 | 1016 | 10 | SO 9.3 | |
| Oggi h: 04:00 | Molto Nuvoloso | 18 | 16 | 88 | 1015 | 10 | S/SO 9.3 | |
| Oggi h: 03:30 | Molto Nuvoloso | 18 | 16 | 88 | 1016 | 10 | SO 13 | |
| Oggi h: 03:00 | Molto Nuvoloso | 18 | 16 | 88 | 1016 | 10 | S/SO 11.1 | |
| Oggi h: 02:30 | Molto Nuvoloso | 17 | 16 | 93 | 1015 | 10 | S/SO 11.1 | |
| Oggi h: 02:00 | Nuvoloso | 17 | 16 | 93 | 1015 | 10 | SO 9.3 | |
| Oggi h: 01:30 | Poco Nuvoloso | 18 | 16 | 88 | 1015 | 10 | SO 13 | |
| Oggi h: 01:00 | Molto Nuvoloso | 18 | 16 | 88 | 1015 | 10 | O/SO 14.8 | |
| Oggi h: 00:30 | Molto Nuvoloso | 19 | 17 | 88 | 1015 | 10 | S/SO 13 | |
| Oggi h: 00:00 | Molto Nuvoloso | 18 | 17 | 93 | 1015 | 10 | SO 13 | |
| Ieri h: 23:30 | Molto Nuvoloso | 18 | 17 | 93 | 1015 | 10 | SO 14.8 | |
| Ieri h: 23:00 | Molto Nuvoloso | 18 | 17 | 93 | 1015 | 10 | SO 14.8 | |



